This is the latest recevied weather packets stored in our database for station/object HS1WDC-1. If no packets are shown the sender has not sent any weather packets the latest 10 day(s).
| Time | Temp. | Humidity | Pressure | Rain* | Wind** | Luminosity | Snow |
|---|---|---|---|---|---|---|---|
| 1777502122 | 35.56° C | 55% | 1008 hPa | - | - | 0 W/m² | - |
| 1777501198 | 34.44° C | 58% | 1008 hPa | - | - | 0 W/m² | - |
| 1777500274 | 35.56° C | 56% | 1008 hPa | - | - | 0 W/m² | - |
| 1777499349 | 35.56° C | 55% | 1007 hPa | - | - | 0 W/m² | - |
| 1777498425 | 34.44° C | 58% | 1007 hPa | - | - | 0 W/m² | - |
| 1777497501 | 35.56° C | 55% | 1007 hPa | - | - | 0 W/m² | - |
| 1777496577 | 35° C | 56% | 1007 hPa | - | - | 0 W/m² | - |
| 1777495652 | 36.11° C | 53% | 1007 hPa | - | - | 0 W/m² | - |
| 1777494728 | 35.56° C | 54% | 1007 hPa | - | - | 0 W/m² | - |
| 1777493804 | 35° C | 55% | 1006 hPa | - | - | 0 W/m² | - |
| 1777492880 | 35° C | 55% | 1006 hPa | - | - | 0 W/m² | - |
| 1777491955 | 35.56° C | 54% | 1006 hPa | - | - | 0 W/m² | - |
| 1777491031 | 35.56° C | 53% | 1006 hPa | - | - | 0 W/m² | - |
| 1777490107 | 35.56° C | 52% | 1006 hPa | - | - | 0 W/m² | - |
| 1777489182 | 35° C | 54% | 1006 hPa | - | - | 0 W/m² | - |
| 1777488257 | 35° C | 54% | 1007 hPa | - | - | 0 W/m² | - |
| 1777487333 | 35.56° C | 53% | 1007 hPa | - | - | 0 W/m² | - |
| 1777486409 | 35.56° C | 52% | 1007 hPa | - | - | 0 W/m² | - |
| 1777485484 | 35.56° C | 52% | 1007 hPa | - | - | 0 W/m² | - |
| 1777484560 | 36.11° C | 50% | 1007 hPa | - | - | 0 W/m² | - |
| 1777483636 | 36.11° C | 48% | 1008 hPa | - | - | 0 W/m² | - |
| 1777482711 | 36.11° C | 49% | 1008 hPa | - | - | 0 W/m² | - |
| 1777481787 | 36.11° C | 48% | 1008 hPa | - | - | 0 W/m² | - |
| 1777480863 | 36.11° C | 48% | 1008 hPa | - | - | 0 W/m² | - |
| 1777479939 | 36.11° C | 47% | 1008 hPa | - | - | 0 W/m² | - |
* Rain since midnight (hover to see other rain measurements)
** Current wind speed in m/s (hover to see current wind gust speed)